Poteau, OK

12:26 PM CDT on March 27, 2017 (GMT -0500)
Kerr

Weather History for KRKR - October, 2012

Change the Weather History Date:

Thursday, October 25, 2012

  Actual Average (KFSM) Record (KFSM)
Temperature  
Mean Temperature 64 °F -  
Max Temperature 78 °F 70 °F 88 °F (1950)
Min Temperature 51 °F 48 °F 29 °F (1982)
Growing Degree Days 14 (Base 50)    
Moisture  
Dew Point 59 °F    
Average Humidity 82    
Maximum Humidity 100    
Minimum Humidity 69    
Precipitation  
Precipitation 0.33 in - - ()
Sea Level Pressure  
Sea Level Pressure 29.96 in    
Wind  
Wind Speed 10 mph (WSW)    
Max Wind Speed 17 mph    
Max Gust Speed 24 mph    
Visibility 9 miles    
Events Rain    
Averages and records for this station are not official NWS values.
T = Trace of Precipitation, MM = Missing Value Source: NWS Daily Summary

Daily Weather History Graph

Daily Weather History Graph

Search for Another Location

Airport or City:

Trip Planner

Search our weather history database for the weather conditions in past years. The results will help you decide how hot, cold, wet, or windy it might be!

Date:

Astronomy

Oct. 25, 2012 Rise Set
Actual Time 7:33 AM CDT 6:30 PM CDT
Civil Twilight 7:07 AM CDT 6:56 PM CDT
Nautical Twilight 6:37 AM CDT 7:26 PM CDT
Astronomical Twilight 6:08 AM CDT 7:55 PM CDT
Moon 4:10 PM CDT (10/25) 3:39 AM CDT (10/25)
Length of Visible Light 11h 49m
Length of Day
10h 57m
Waxing Gibbous, 84% of the Moon is Illuminated
Oct 25
Waxing Gibbous
Oct 29
Full
Nov 6
Last Quarter
Nov 13
New
Nov 20
First Quarter

Hourly Weather History & Observations

Time (CDT) Temp. Dew Point Humidity Pressure Visibility Wind Dir Wind Speed Gust Speed Precip Events Conditions
12:15 AM 77.0 °F 68.0 °F 74% 29.85 in 10.0 mi South 11.5 mph 19.6 mph N/A   Clear
12:35 AM 77.0 °F 68.0 °F 74% 29.84 in 10.0 mi South 12.7 mph 17.3 mph N/A   Clear
12:55 AM 73.4 °F 64.4 °F 73% 29.84 in 10.0 mi South 11.5 mph - N/A   Clear
1:35 AM 73.4 °F 66.2 °F 78% 29.83 in 10.0 mi South 4.6 mph - N/A   Clear
1:55 AM 73.4 °F 66.2 °F 78% 29.82 in 10.0 mi Calm Calm - N/A   Scattered Clouds
2:35 AM 75.2 °F 68.0 °F 78% 29.82 in 10.0 mi Calm Calm - N/A   Scattered Clouds
2:55 AM 77.0 °F 68.0 °F 74% 29.83 in 10.0 mi South 9.2 mph - N/A   Scattered Clouds
3:15 AM 77.0 °F 68.0 °F 74% 29.83 in 10.0 mi SSW 11.5 mph 19.6 mph N/A   Scattered Clouds
3:35 AM 77.0 °F 68.0 °F 74% 29.84 in 10.0 mi South 10.4 mph - N/A   Mostly Cloudy
3:55 AM 77.0 °F 68.0 °F 74% 29.85 in 10.0 mi South 12.7 mph 17.3 mph N/A   Overcast
4:15 AM 77.0 °F 68.0 °F 74% 29.85 in 10.0 mi South 13.8 mph 20.7 mph N/A   Overcast
4:35 AM 77.0 °F 69.8 °F 78% 29.85 in 10.0 mi South 12.7 mph 20.7 mph N/A   Overcast
4:55 AM 77.0 °F 69.8 °F 78% 29.85 in 10.0 mi South 10.4 mph - N/A   Overcast
5:15 AM 73.4 °F 68.0 °F 83% 29.85 in 10.0 mi South 15.0 mph 18.4 mph N/A   Mostly Cloudy
5:35 AM 73.4 °F 66.2 °F 78% 29.85 in 10.0 mi South 13.8 mph 20.7 mph N/A   Scattered Clouds
5:55 AM 73.4 °F 66.2 °F 78% 29.85 in 10.0 mi South 13.8 mph 18.4 mph N/A   Clear
6:35 AM 71.6 °F 66.2 °F 83% 29.85 in 10.0 mi South 10.4 mph - N/A   Clear
6:55 AM 71.6 °F 66.2 °F 83% 29.85 in 10.0 mi South 15.0 mph 19.6 mph N/A   Clear
7:15 AM 73.4 °F 68.0 °F 83% 29.86 in 10.0 mi South 12.7 mph 18.4 mph N/A   Clear
7:35 AM 73.4 °F 68.0 °F 83% 29.86 in 10.0 mi South 6.9 mph - N/A   Mostly Cloudy
7:55 AM 73.4 °F 68.0 °F 83% 29.87 in 10.0 mi South 11.5 mph 16.1 mph N/A   Overcast
8:55 AM 73.4 °F 68.0 °F 83% 29.87 in 10.0 mi South 15.0 mph 18.4 mph N/A   Mostly Cloudy
9:15 AM 77.0 °F 69.8 °F 78% 29.88 in 10.0 mi South 12.7 mph 20.7 mph N/A   Scattered Clouds
9:55 AM 77.0 °F 68.0 °F 74% 29.89 in 10.0 mi South 12.7 mph - N/A   Scattered Clouds
10:35 AM 78.8 °F 68.0 °F 69% 29.89 in 10.0 mi South 11.5 mph - N/A   Mostly Cloudy
10:55 AM 77.0 °F 68.0 °F 74% 29.89 in 10.0 mi South 11.5 mph 19.6 mph N/A   Overcast
11:15 AM 77.0 °F 68.0 °F 74% 29.90 in 10.0 mi SSW 11.5 mph 17.3 mph N/A   Overcast
11:35 AM 77.0 °F 68.0 °F 74% 29.90 in 10.0 mi SW 9.2 mph - N/A   Overcast
11:55 AM 77.0 °F 68.0 °F 74% 29.90 in 10.0 mi SSW 9.2 mph 18.4 mph N/A   Overcast
12:15 PM 77.0 °F 68.0 °F 74% 29.90 in 10.0 mi SW 8.1 mph - N/A   Overcast
12:35 PM 77.0 °F 68.0 °F 74% 29.89 in 10.0 mi South 9.2 mph 18.4 mph N/A   Overcast
1:15 PM 77.0 °F 68.0 °F 74% 29.88 in 10.0 mi SSW 8.1 mph - N/A   Overcast
1:55 PM 71.6 °F 68.0 °F 88% 29.89 in 10.0 mi West 15.0 mph 24.2 mph 0.02 in Rain Light Rain
2:15 PM 60.8 °F 59.0 °F 94% 29.90 in 7.0 mi WNW 8.1 mph 21.9 mph 0.03 in Rain Rain
2:35 PM 60.8 °F 59.0 °F 94% 29.91 in 10.0 mi North 9.2 mph - 0.03 in Rain Light Rain
2:55 PM 59.0 °F 57.2 °F 94% 29.93 in 10.0 mi Calm Calm - 0.03 in   Drizzle
3:15 PM 59.0 °F 57.2 °F 94% 29.95 in 7.0 mi ESE 6.9 mph - 0.01 in Rain Rain
3:35 PM 55.4 °F 55.4 °F 100% 29.97 in 2.5 mi ESE 3.5 mph - 0.09 in Rain Heavy Rain
3:55 PM 55.4 °F 55.4 °F 100% 29.99 in 3.0 mi NNW 3.5 mph - 0.17 in Rain Rain
4:15 PM 55.4 °F 53.6 °F 94% 30.01 in 5.0 mi North 8.1 mph - 0.01 in Rain Rain
4:35 PM 53.6 °F 51.8 °F 94% 30.02 in 5.0 mi NNW 15.0 mph 18.4 mph 0.02 in Rain Rain
4:55 PM 51.8 °F 50.0 °F 94% 30.03 in 10.0 mi NNW 17.3 mph 24.2 mph 0.04 in Rain Heavy Rain
5:15 PM 51.8 °F 50.0 °F 94% 30.05 in 5.0 mi NNW 11.5 mph 20.7 mph 0.07 in Rain Light Rain
5:35 PM 51.8 °F 50.0 °F 94% 30.06 in 10.0 mi NNW 11.5 mph 16.1 mph 0.07 in Rain Light Rain
5:55 PM 51.8 °F 50.0 °F 94% 30.06 in 10.0 mi North 9.2 mph - 0.07 in Rain Light Rain
6:15 PM 51.8 °F 50.0 °F 94% 30.07 in 10.0 mi North 6.9 mph - N/A   Overcast
6:35 PM 51.8 °F 50.0 °F 94% 30.07 in 10.0 mi North 9.2 mph - N/A   Overcast
6:55 PM 51.8 °F 48.2 °F 88% 30.08 in 10.0 mi NNW 6.9 mph - N/A   Overcast
7:15 PM 51.8 °F 48.2 °F 88% 30.09 in 10.0 mi NNW 5.8 mph - N/A   Overcast
7:35 PM 51.8 °F 46.4 °F 82% 30.10 in 10.0 mi North 6.9 mph - N/A   Overcast
7:55 PM 51.8 °F 46.4 °F 82% 30.11 in 10.0 mi NNW 8.1 mph - N/A   Overcast
8:15 PM 51.8 °F 46.4 °F 82% 30.11 in 10.0 mi North 10.4 mph - N/A   Overcast
8:35 PM 51.8 °F 46.4 °F 82% 30.13 in 10.0 mi NNW 3.5 mph - N/A   Overcast
8:55 PM 51.8 °F 46.4 °F 82% 30.13 in 10.0 mi NNW 8.1 mph 16.1 mph N/A   Overcast
9:15 PM 51.8 °F 46.4 °F 82% 30.14 in 10.0 mi NNW 11.5 mph 18.4 mph N/A   Overcast
9:35 PM 51.8 °F 46.4 °F 82% 30.14 in 10.0 mi North 11.5 mph 19.6 mph N/A   Overcast
9:55 PM 51.8 °F 44.6 °F 76% 30.15 in 10.0 mi North 8.1 mph 16.1 mph N/A   Overcast
10:15 PM 51.8 °F 44.6 °F 76% 30.15 in 10.0 mi North 9.2 mph 18.4 mph N/A   Overcast
10:55 PM 51.8 °F 44.6 °F 76% 30.16 in 10.0 mi North 8.1 mph - N/A   Overcast
11:15 PM 51.8 °F 44.6 °F 76% 30.16 in 10.0 mi North 12.7 mph 17.3 mph N/A   Overcast
11:35 PM 51.8 °F 44.6 °F 76% 30.16 in 10.0 mi North 11.5 mph - N/A   Overcast
11:55 PM 51.8 °F 44.6 °F 76% 30.15 in 10.0 mi North 12.7 mph 19.6 mph N/A   Overcast